sensor_id;sensor_type;location;lat;lon;timestamp;temperature;humidity
6462;DHT22;3264;42.862;25.098;2022-12-07T00:01:55;2.50;99.90
6462;DHT22;3264;42.862;25.098;2022-12-07T00:04:22;2.50;99.90
6462;DHT22;3264;42.862;25.098;2022-12-07T00:06:54;2.50;99.90
6462;DHT22;3264;42.862;25.098;2022-12-07T00:09:25;2.60;99.90
6462;DHT22;3264;42.862;25.098;2022-12-07T00:11:58;2.60;99.90
6462;DHT22;3264;42.862;25.098;2022-12-07T00:14:28;2.50;99.90
6462;DHT22;3264;42.862;25.098;2022-12-07T00:16:58;2.60;99.90
6462;DHT22;3264;42.862;25.098;2022-12-07T00:19:40;2.50;99.90
6462;DHT22;3264;42.862;25.098;2022-12-07T00:22:08;2.60;99.90
6462;DHT22;3264;42.862;25.098;2022-12-07T00:24:40;2.70;99.90
6462;DHT22;3264;42.862;25.098;2022-12-07T00:27:09;2.60;99.90
6462;DHT22;3264;42.862;25.098;2022-12-07T00:29:39;2.50;99.90
6462;DHT22;3264;42.862;25.098;2022-12-07T00:32:07;2.50;99.90
6462;DHT22;3264;42.862;25.098;2022-12-07T00:34:37;2.50;99.90
6462;DHT22;3264;42.862;25.098;2022-12-07T00:37:09;2.50;99.90
6462;DHT22;3264;42.862;25.098;2022-12-07T00:39:38;2.50;99.90
6462;DHT22;3264;42.862;25.098;2022-12-07T00:42:06;2.60;99.90
6462;DHT22;3264;42.862;25.098;2022-12-07T00:44:40;2.70;99.90
6462;DHT22;3264;42.862;25.098;2022-12-07T00:47:09;2.70;99.90
6462;DHT22;3264;42.862;25.098;2022-12-07T00:49:39;2.80;99.90
6462;DHT22;3264;42.862;25.098;2022-12-07T00:52:06;2.80;99.90
6462;DHT22;3264;42.862;25.098;2022-12-07T00:54:34;2.80;99.90
6462;DHT22;3264;42.862;25.098;2022-12-07T00:57:07;2.80;99.90
6462;DHT22;3264;42.862;25.098;2022-12-07T00:59:36;2.90;99.90
6462;DHT22;3264;42.862;25.098;2022-12-07T01:02:16;2.90;99.90
6462;DHT22;3264;42.862;25.098;2022-12-07T01:04:43;2.80;99.90
6462;DHT22;3264;42.862;25.098;2022-12-07T01:07:11;2.80;99.90
6462;DHT22;3264;42.862;25.098;2022-12-07T01:09:42;2.60;99.90
6462;DHT22;3264;42.862;25.098;2022-12-07T01:12:23;2.70;99.90
6462;DHT22;3264;42.862;25.098;2022-12-07T01:14:54;2.70;99.90
6462;DHT22;3264;42.862;25.098;2022-12-07T01:17:23;2.80;99.90
6462;DHT22;3264;42.862;25.098;2022-12-07T01:19:51;2.80;99.90
6462;DHT22;3264;42.862;25.098;2022-12-07T01:22:19;2.80;99.90
6462;DHT22;3264;42.862;25.098;2022-12-07T01:24:48;2.80;99.90
6462;DHT22;3264;42.862;25.098;2022-12-07T01:27:16;2.80;99.90
6462;DHT22;3264;42.862;25.098;2022-12-07T01:29:44;2.70;99.90
6462;DHT22;3264;42.862;25.098;2022-12-07T01:32:13;2.80;99.90
6462;DHT22;3264;42.862;25.098;2022-12-07T01:34:42;2.80;99.90
6462;DHT22;3264;42.862;25.098;2022-12-07T01:37:09;2.80;99.90
6462;DHT22;3264;42.862;25.098;2022-12-07T01:39:37;2.90;99.90
6462;DHT22;3264;42.862;25.098;2022-12-07T01:42:07;2.90;99.90
6462;DHT22;3264;42.862;25.098;2022-12-07T01:47:38;2.90;99.90
6462;DHT22;3264;42.862;25.098;2022-12-07T01:50:06;2.90;99.90
6462;DHT22;3264;42.862;25.098;2022-12-07T01:52:38;2.90;99.90
6462;DHT22;3264;42.862;25.098;2022-12-07T01:55:08;2.90;99.90
6462;DHT22;3264;42.862;25.098;2022-12-07T01:57:40;2.90;99.90
6462;DHT22;3264;42.862;25.098;2022-12-07T02:00:10;2.90;99.90
6462;DHT22;3264;42.862;25.098;2022-12-07T02:02:45;2.90;99.90
6462;DHT22;3264;42.862;25.098;2022-12-07T02:05:17;3.00;99.90
6462;DHT22;3264;42.862;25.098;2022-12-07T02:07:47;3.00;99.90
6462;DHT22;3264;42.862;25.098;2022-12-07T02:10:17;3.10;99.90
6462;DHT22;3264;42.862;25.098;2022-12-07T02:12:48;3.10;99.90
6462;DHT22;3264;42.862;25.098;2022-12-07T02:15:18;3.10;99.90
6462;DHT22;3264;42.862;25.098;2022-12-07T02:17:54;3.10;99.90
6462;DHT22;3264;42.862;25.098;2022-12-07T02:20:27;3.10;99.90
6462;DHT22;3264;42.862;25.098;2022-12-07T02:26:20;3.20;99.90
6462;DHT22;3264;42.862;25.098;2022-12-07T02:29:08;3.20;99.90
6462;DHT22;3264;42.862;25.098;2022-12-07T02:31:43;3.20;99.90
6462;DHT22;3264;42.862;25.098;2022-12-07T02:34:17;3.20;99.90
6462;DHT22;3264;42.862;25.098;2022-12-07T02:36:52;3.20;99.90
6462;DHT22;3264;42.862;25.098;2022-12-07T02:39:27;3.30;99.90
6462;DHT22;3264;42.862;25.098;2022-12-07T02:42:00;3.30;99.90
6462;DHT22;3264;42.862;25.098;2022-12-07T02:44:32;3.30;99.90
6462;DHT22;3264;42.862;25.098;2022-12-07T02:47:06;3.30;99.90
6462;DHT22;3264;42.862;25.098;2022-12-07T02:49:36;3.40;99.90
6462;DHT22;3264;42.862;25.098;2022-12-07T02:52:09;3.40;99.90
6462;DHT22;3264;42.862;25.098;2022-12-07T02:54:38;3.40;99.90
6462;DHT22;3264;42.862;25.098;2022-12-07T02:57:19;3.30;99.90
6462;DHT22;3264;42.862;25.098;2022-12-07T03:00:01;3.40;99.90
6462;DHT22;3264;42.862;25.098;2022-12-07T03:02:38;3.30;99.90
6462;DHT22;3264;42.862;25.098;2022-12-07T03:05:34;3.40;99.90
6462;DHT22;3264;42.862;25.098;2022-12-07T03:08:15;3.40;99.90
6462;DHT22;3264;42.862;25.098;2022-12-07T03:10:53;3.40;99.90
6462;DHT22;3264;42.862;25.098;2022-12-07T03:13:28;3.40;99.90
6462;DHT22;3264;42.862;25.098;2022-12-07T03:16:02;3.40;99.90
6462;DHT22;3264;42.862;25.098;2022-12-07T03:18:37;3.30;99.90
6462;DHT22;3264;42.862;25.098;2022-12-07T03:21:09;3.30;99.90
6462;DHT22;3264;42.862;25.098;2022-12-07T03:23:41;3.30;99.90
6462;DHT22;3264;42.862;25.098;2022-12-07T03:26:13;3.30;99.90
6462;DHT22;3264;42.862;25.098;2022-12-07T03:28:48;3.30;99.90
6462;DHT22;3264;42.862;25.098;2022-12-07T03:31:22;3.40;99.90
6462;DHT22;3264;42.862;25.098;2022-12-07T03:33:54;3.50;99.90
6462;DHT22;3264;42.862;25.098;2022-12-07T03:36:27;3.50;99.90
6462;DHT22;3264;42.862;25.098;2022-12-07T03:39:02;3.40;99.90
6462;DHT22;3264;42.862;25.098;2022-12-07T03:41:33;3.40;99.90
6462;DHT22;3264;42.862;25.098;2022-12-07T03:44:04;3.40;99.90
6462;DHT22;3264;42.862;25.098;2022-12-07T03:46:40;3.40;99.90
6462;DHT22;3264;42.862;25.098;2022-12-07T03:49:15;3.40;99.90
6462;DHT22;3264;42.862;25.098;2022-12-07T03:51:50;3.40;99.90
6462;DHT22;3264;42.862;25.098;2022-12-07T03:54:21;3.50;99.90
6462;DHT22;3264;42.862;25.098;2022-12-07T03:56:52;3.50;99.90
6462;DHT22;3264;42.862;25.098;2022-12-07T03:59:21;3.40;99.90
6462;DHT22;3264;42.862;25.098;2022-12-07T04:01:55;3.40;99.90
6462;DHT22;3264;42.862;25.098;2022-12-07T04:04:24;3.50;99.90
6462;DHT22;3264;42.862;25.098;2022-12-07T04:06:53;3.40;99.90
6462;DHT22;3264;42.862;25.098;2022-12-07T04:09:21;3.40;99.90
6462;DHT22;3264;42.862;25.098;2022-12-07T04:11:49;3.30;99.90
6462;DHT22;3264;42.862;25.098;2022-12-07T04:14:18;3.40;99.90
6462;DHT22;3264;42.862;25.098;2022-12-07T04:16:47;3.40;99.90
6462;DHT22;3264;42.862;25.098;2022-12-07T04:19:18;3.50;99.90
6462;DHT22;3264;42.862;25.098;2022-12-07T04:21:47;3.50;99.90
6462;DHT22;3264;42.862;25.098;2022-12-07T04:24:16;3.60;99.90
6462;DHT22;3264;42.862;25.098;2022-12-07T04:26:45;3.60;99.90
6462;DHT22;3264;42.862;25.098;2022-12-07T04:29:14;3.60;99.90
6462;DHT22;3264;42.862;25.098;2022-12-07T04:31:43;3.40;99.90
6462;DHT22;3264;42.862;25.098;2022-12-07T04:34:12;3.40;99.90
6462;DHT22;3264;42.862;25.098;2022-12-07T04:36:42;3.40;99.90
6462;DHT22;3264;42.862;25.098;2022-12-07T04:39:19;3.40;99.90
6462;DHT22;3264;42.862;25.098;2022-12-07T04:41:48;3.50;99.90
6462;DHT22;3264;42.862;25.098;2022-12-07T04:44:46;3.50;99.90
6462;DHT22;3264;42.862;25.098;2022-12-07T04:47:14;3.40;99.90
6462;DHT22;3264;42.862;25.098;2022-12-07T04:49:42;3.40;99.90
6462;DHT22;3264;42.862;25.098;2022-12-07T04:52:13;3.40;99.90
6462;DHT22;3264;42.862;25.098;2022-12-07T04:54:41;3.30;99.90
6462;DHT22;3264;42.862;25.098;2022-12-07T04:57:10;3.30;99.90
6462;DHT22;3264;42.862;25.098;2022-12-07T04:59:37;3.30;99.90
6462;DHT22;3264;42.862;25.098;2022-12-07T05:02:05;3.20;99.90
6462;DHT22;3264;42.862;25.098;2022-12-07T05:04:32;3.20;99.90
6462;DHT22;3264;42.862;25.098;2022-12-07T05:07:01;3.10;99.90
6462;DHT22;3264;42.862;25.098;2022-12-07T05:09:31;3.10;99.90
6462;DHT22;3264;42.862;25.098;2022-12-07T05:11:59;3.10;99.90
6462;DHT22;3264;42.862;25.098;2022-12-07T05:14:27;3.10;99.90
6462;DHT22;3264;42.862;25.098;2022-12-07T05:16:56;3.10;99.90
6462;DHT22;3264;42.862;25.098;2022-12-07T05:19:24;3.00;99.90
6462;DHT22;3264;42.862;25.098;2022-12-07T05:21:53;2.90;99.90
6462;DHT22;3264;42.862;25.098;2022-12-07T05:24:21;2.90;99.90
6462;DHT22;3264;42.862;25.098;2022-12-07T05:26:51;2.80;99.90
6462;DHT22;3264;42.862;25.098;2022-12-07T05:29:18;2.80;99.90
6462;DHT22;3264;42.862;25.098;2022-12-07T05:31:46;2.80;99.90
6462;DHT22;3264;42.862;25.098;2022-12-07T05:34:14;2.90;99.90
6462;DHT22;3264;42.862;25.098;2022-12-07T05:36:42;2.90;99.90
6462;DHT22;3264;42.862;25.098;2022-12-07T05:39:10;2.90;99.90
6462;DHT22;3264;42.862;25.098;2022-12-07T05:41:38;2.80;99.90
6462;DHT22;3264;42.862;25.098;2022-12-07T05:44:25;2.80;99.90
6462;DHT22;3264;42.862;25.098;2022-12-07T05:46:53;2.80;99.90
6462;DHT22;3264;42.862;25.098;2022-12-07T05:49:21;2.80;99.90
6462;DHT22;3264;42.862;25.098;2022-12-07T05:51:50;2.80;99.90
6462;DHT22;3264;42.862;25.098;2022-12-07T05:54:18;2.80;99.90
6462;DHT22;3264;42.862;25.098;2022-12-07T05:56:46;2.80;99.90
6462;DHT22;3264;42.862;25.098;2022-12-07T05:59:18;2.90;99.90
6462;DHT22;3264;42.862;25.098;2022-12-07T06:01:57;2.90;99.90
6462;DHT22;3264;42.862;25.098;2022-12-07T06:04:27;3.00;99.90
6462;DHT22;3264;42.862;25.098;2022-12-07T06:06:56;3.00;99.90
6462;DHT22;3264;42.862;25.098;2022-12-07T06:09:26;3.00;99.90
6462;DHT22;3264;42.862;25.098;2022-12-07T06:11:56;3.10;99.90
6462;DHT22;3264;42.862;25.098;2022-12-07T06:14:41;3.20;99.90
6462;DHT22;3264;42.862;25.098;2022-12-07T06:17:11;3.50;99.90
6462;DHT22;3264;42.862;25.098;2022-12-07T06:19:39;3.90;99.90
6462;DHT22;3264;42.862;25.098;2022-12-07T06:22:08;4.50;99.90
6462;DHT22;3264;42.862;25.098;2022-12-07T06:24:38;4.40;99.90
6462;DHT22;3264;42.862;25.098;2022-12-07T06:27:07;4.10;99.90
6462;DHT22;3264;42.862;25.098;2022-12-07T06:29:35;3.90;99.90
6462;DHT22;3264;42.862;25.098;2022-12-07T06:32:04;3.80;99.90
6462;DHT22;3264;42.862;25.098;2022-12-07T06:34:34;3.80;99.90
6462;DHT22;3264;42.862;25.098;2022-12-07T06:37:03;3.60;99.90
6462;DHT22;3264;42.862;25.098;2022-12-07T06:39:32;3.60;99.90
6462;DHT22;3264;42.862;25.098;2022-12-07T06:42:01;3.60;99.90
6462;DHT22;3264;42.862;25.098;2022-12-07T06:44:30;3.60;99.90
6462;DHT22;3264;42.862;25.098;2022-12-07T06:46:59;3.60;99.90
6462;DHT22;3264;42.862;25.098;2022-12-07T06:49:28;3.60;99.90
6462;DHT22;3264;42.862;25.098;2022-12-07T06:51:57;3.70;99.90
6462;DHT22;3264;42.862;25.098;2022-12-07T06:54:24;3.80;99.90
6462;DHT22;3264;42.862;25.098;2022-12-07T06:56:52;3.80;99.90
6462;DHT22;3264;42.862;25.098;2022-12-07T06:59:20;3.80;99.90
6462;DHT22;3264;42.862;25.098;2022-12-07T07:01:48;3.80;99.90
6462;DHT22;3264;42.862;25.098;2022-12-07T07:04:16;3.90;99.90
6462;DHT22;3264;42.862;25.098;2022-12-07T07:06:44;3.90;99.90
6462;DHT22;3264;42.862;25.098;2022-12-07T07:09:15;4.00;99.90
6462;DHT22;3264;42.862;25.098;2022-12-07T07:11:44;4.10;99.90
6462;DHT22;3264;42.862;25.098;2022-12-07T07:14:11;4.20;99.90
6462;DHT22;3264;42.862;25.098;2022-12-07T07:16:42;4.40;99.90
6462;DHT22;3264;42.862;25.098;2022-12-07T07:19:09;4.70;99.90
6462;DHT22;3264;42.862;25.098;2022-12-07T07:21:38;5.00;99.90
6462;DHT22;3264;42.862;25.098;2022-12-07T07:24:06;5.00;99.90
6462;DHT22;3264;42.862;25.098;2022-12-07T07:26:35;5.20;99.90
6462;DHT22;3264;42.862;25.098;2022-12-07T07:29:03;5.10;99.90
6462;DHT22;3264;42.862;25.098;2022-12-07T07:31:32;5.20;99.90
6462;DHT22;3264;42.862;25.098;2022-12-07T07:34:02;5.60;99.90
6462;DHT22;3264;42.862;25.098;2022-12-07T07:36:32;5.60;99.90
6462;DHT22;3264;42.862;25.098;2022-12-07T07:39:01;5.80;99.90
6462;DHT22;3264;42.862;25.098;2022-12-07T07:41:28;5.90;99.90
6462;DHT22;3264;42.862;25.098;2022-12-07T07:43:58;6.40;99.90
6462;DHT22;3264;42.862;25.098;2022-12-07T07:46:27;6.60;99.90
6462;DHT22;3264;42.862;25.098;2022-12-07T07:48:54;6.40;99.90
6462;DHT22;3264;42.862;25.098;2022-12-07T07:51:23;6.50;99.90
6462;DHT22;3264;42.862;25.098;2022-12-07T07:53:51;6.00;99.90
6462;DHT22;3264;42.862;25.098;2022-12-07T07:56:20;6.30;99.90
6462;DHT22;3264;42.862;25.098;2022-12-07T07:58:51;6.20;99.90
6462;DHT22;3264;42.862;25.098;2022-12-07T08:01:21;6.30;99.90
6462;DHT22;3264;42.862;25.098;2022-12-07T08:03:48;7.20;99.90
6462;DHT22;3264;42.862;25.098;2022-12-07T08:06:18;7.90;99.90
6462;DHT22;3264;42.862;25.098;2022-12-07T08:08:46;8.30;99.90
6462;DHT22;3264;42.862;25.098;2022-12-07T08:11:14;7.90;99.90
6462;DHT22;3264;42.862;25.098;2022-12-07T08:13:45;8.10;99.90
6462;DHT22;3264;42.862;25.098;2022-12-07T08:16:14;8.30;99.90
6462;DHT22;3264;42.862;25.098;2022-12-07T08:18:44;7.90;99.90
6462;DHT22;3264;42.862;25.098;2022-12-07T08:21:14;7.50;99.90
6462;DHT22;3264;42.862;25.098;2022-12-07T08:23:43;8.40;99.90
6462;DHT22;3264;42.862;25.098;2022-12-07T08:26:13;9.00;99.90
6462;DHT22;3264;42.862;25.098;2022-12-07T08:28:41;9.70;99.90
6462;DHT22;3264;42.862;25.098;2022-12-07T08:31:13;10.10;99.90
6462;DHT22;3264;42.862;25.098;2022-12-07T08:33:41;10.10;99.40
6462;DHT22;3264;42.862;25.098;2022-12-07T08:36:12;11.40;97.90
6462;DHT22;3264;42.862;25.098;2022-12-07T08:38:41;12.00;95.00
6462;DHT22;3264;42.862;25.098;2022-12-07T08:41:09;10.70;93.30
6462;DHT22;3264;42.862;25.098;2022-12-07T08:43:37;11.40;94.90
6462;DHT22;3264;42.862;25.098;2022-12-07T08:46:09;11.50;94.50
6462;DHT22;3264;42.862;25.098;2022-12-07T08:48:42;10.00;94.20
6462;DHT22;3264;42.862;25.098;2022-12-07T08:51:13;10.40;96.30
6462;DHT22;3264;42.862;25.098;2022-12-07T08:53:43;11.10;96.00
6462;DHT22;3264;42.862;25.098;2022-12-07T08:56:12;11.70;94.80
6462;DHT22;3264;42.862;25.098;2022-12-07T08:58:41;11.90;93.40
6462;DHT22;3264;42.862;25.098;2022-12-07T09:01:12;11.80;93.90
6462;DHT22;3264;42.862;25.098;2022-12-07T09:03:40;12.30;94.50
6462;DHT22;3264;42.862;25.098;2022-12-07T09:06:08;11.90;92.30
6462;DHT22;3264;42.862;25.098;2022-12-07T09:08:41;12.10;94.20
6462;DHT22;3264;42.862;25.098;2022-12-07T09:11:10;11.70;93.40
6462;DHT22;3264;42.862;25.098;2022-12-07T09:13:38;11.80;94.10
6462;DHT22;3264;42.862;25.098;2022-12-07T09:16:06;11.30;94.30
6462;DHT22;3264;42.862;25.098;2022-12-07T09:18:34;10.90;95.60
6462;DHT22;3264;42.862;25.098;2022-12-07T09:21:03;11.00;95.40
6462;DHT22;3264;42.862;25.098;2022-12-07T09:23:31;10.90;96.10
6462;DHT22;3264;42.862;25.098;2022-12-07T09:26:01;10.90;96.60
6462;DHT22;3264;42.862;25.098;2022-12-07T09:28:31;10.60;96.80
6462;DHT22;3264;42.862;25.098;2022-12-07T09:30:59;10.20;97.10
6462;DHT22;3264;42.862;25.098;2022-12-07T09:33:28;9.90;98.50
6462;DHT22;3264;42.862;25.098;2022-12-07T09:35:56;9.70;99.90
6462;DHT22;3264;42.862;25.098;2022-12-07T09:38:25;9.70;99.00
6462;DHT22;3264;42.862;25.098;2022-12-07T09:40:54;10.60;98.80
6462;DHT22;3264;42.862;25.098;2022-12-07T09:43:25;11.90;97.60
6462;DHT22;3264;42.862;25.098;2022-12-07T09:45:55;12.70;93.50
6462;DHT22;3264;42.862;25.098;2022-12-07T09:48:28;12.80;93.20
6462;DHT22;3264;42.862;25.098;2022-12-07T09:50:59;13.90;92.30
6462;DHT22;3264;42.862;25.098;2022-12-07T09:53:29;14.00;89.70
6462;DHT22;3264;42.862;25.098;2022-12-07T09:55:57;12.60;90.30
6462;DHT22;3264;42.862;25.098;2022-12-07T09:58:29;11.80;92.60
6462;DHT22;3264;42.862;25.098;2022-12-07T10:01:00;11.40;94.00
6462;DHT22;3264;42.862;25.098;2022-12-07T10:03:29;11.40;95.00
6462;DHT22;3264;42.862;25.098;2022-12-07T10:05:58;11.60;95.60
6462;DHT22;3264;42.862;25.098;2022-12-07T10:08:28;11.70;95.60
6462;DHT22;3264;42.862;25.098;2022-12-07T10:10:57;11.90;94.50
6462;DHT22;3264;42.862;25.098;2022-12-07T10:13:36;12.30;94.30
6462;DHT22;3264;42.862;25.098;2022-12-07T10:16:06;12.40;93.80
6462;DHT22;3264;42.862;25.098;2022-12-07T10:18:35;12.90;93.30
6462;DHT22;3264;42.862;25.098;2022-12-07T10:21:12;13.20;92.10
6462;DHT22;3264;42.862;25.098;2022-12-07T10:23:41;12.60;92.90
6462;DHT22;3264;42.862;25.098;2022-12-07T10:26:28;12.20;92.30
6462;DHT22;3264;42.862;25.098;2022-12-07T10:28:59;12.30;94.00
6462;DHT22;3264;42.862;25.098;2022-12-07T10:31:29;12.30;93.80
6462;DHT22;3264;42.862;25.098;2022-12-07T10:33:58;12.20;92.90
6462;DHT22;3264;42.862;25.098;2022-12-07T10:36:33;11.90;93.50
6462;DHT22;3264;42.862;25.098;2022-12-07T10:39:10;12.00;93.50
6462;DHT22;3264;42.862;25.098;2022-12-07T10:41:53;12.10;93.40
6462;DHT22;3264;42.862;25.098;2022-12-07T10:44:24;13.20;92.80
6462;DHT22;3264;42.862;25.098;2022-12-07T10:47:14;14.70;91.10
6462;DHT22;3264;42.862;25.098;2022-12-07T10:50:14;16.40;81.10
6462;DHT22;3264;42.862;25.098;2022-12-07T10:53:17;17.10;77.00
6462;DHT22;3264;42.862;25.098;2022-12-07T10:56:02;16.80;74.90
6462;DHT22;3264;42.862;25.098;2022-12-07T10:58:47;17.20;72.80
6462;DHT22;3264;42.862;25.098;2022-12-07T11:01:24;17.70;72.00
6462;DHT22;3264;42.862;25.098;2022-12-07T11:07:00;16.70;72.50
6462;DHT22;3264;42.862;25.098;2022-12-07T11:09:56;16.10;69.20
6462;DHT22;3264;42.862;25.098;2022-12-07T11:12:38;16.90;70.20
6462;DHT22;3264;42.862;25.098;2022-12-07T11:15:15;16.50;71.00
6462;DHT22;3264;42.862;25.098;2022-12-07T11:17:51;16.90;72.00
6462;DHT22;3264;42.862;25.098;2022-12-07T11:20:34;17.00;72.00
6462;DHT22;3264;42.862;25.098;2022-12-07T11:23:13;16.50;72.90
6462;DHT22;3264;42.862;25.098;2022-12-07T11:25:52;15.90;77.30
6462;DHT22;3264;42.862;25.098;2022-12-07T11:28:39;14.60;80.50
6462;DHT22;3264;42.862;25.098;2022-12-07T11:31:22;14.10;84.00
6462;DHT22;3264;42.862;25.098;2022-12-07T11:33:59;13.10;83.60
6462;DHT22;3264;42.862;25.098;2022-12-07T11:36:36;13.20;87.40
6462;DHT22;3264;42.862;25.098;2022-12-07T11:39:12;12.80;89.00
6462;DHT22;3264;42.862;25.098;2022-12-07T11:41:43;12.50;90.50
6462;DHT22;3264;42.862;25.098;2022-12-07T11:44:24;12.40;92.60
6462;DHT22;3264;42.862;25.098;2022-12-07T11:46:58;12.30;93.10
6462;DHT22;3264;42.862;25.098;2022-12-07T11:49:40;12.20;93.80
6462;DHT22;3264;42.862;25.098;2022-12-07T11:52:18;11.90;95.00
6462;DHT22;3264;42.862;25.098;2022-12-07T11:54:49;12.00;95.10
6462;DHT22;3264;42.862;25.098;2022-12-07T11:57:24;12.20;95.70
6462;DHT22;3264;42.862;25.098;2022-12-07T11:59:58;13.30;94.20
6462;DHT22;3264;42.862;25.098;2022-12-07T12:02:34;13.60;93.10
6462;DHT22;3264;42.862;25.098;2022-12-07T12:05:18;13.70;91.90
6462;DHT22;3264;42.862;25.098;2022-12-07T12:07:51;13.20;93.00
6462;DHT22;3264;42.862;25.098;2022-12-07T12:10:24;13.20;92.50
6462;DHT22;3264;42.862;25.098;2022-12-07T12:13:14;12.50;95.00
6462;DHT22;3264;42.862;25.098;2022-12-07T12:16:04;12.10;95.10
6462;DHT22;3264;42.862;25.098;2022-12-07T12:18:53;13.70;93.90
6462;DHT22;3264;42.862;25.098;2022-12-07T12:21:28;14.20;92.40
6462;DHT22;3264;42.862;25.098;2022-12-07T12:23:59;13.70;92.50
6462;DHT22;3264;42.862;25.098;2022-12-07T12:26:32;13.10;94.10
6462;DHT22;3264;42.862;25.098;2022-12-07T12:29:02;13.60;94.20
6462;DHT22;3264;42.862;25.098;2022-12-07T12:31:35;13.40;94.70
6462;DHT22;3264;42.862;25.098;2022-12-07T12:34:32;13.00;94.60
6462;DHT22;3264;42.862;25.098;2022-12-07T12:37:02;12.40;96.00
6462;DHT22;3264;42.862;25.098;2022-12-07T12:42:51;13.10;96.20
6462;DHT22;3264;42.862;25.098;2022-12-07T12:45:21;13.80;95.60
6462;DHT22;3264;42.862;25.098;2022-12-07T12:47:55;14.20;94.80
6462;DHT22;3264;42.862;25.098;2022-12-07T12:50:25;14.50;93.30
6462;DHT22;3264;42.862;25.098;2022-12-07T12:53:21;14.80;93.30
6462;DHT22;3264;42.862;25.098;2022-12-07T12:56:23;14.10;93.00
6462;DHT22;3264;42.862;25.098;2022-12-07T12:59:23;13.50;94.40
6462;DHT22;3264;42.862;25.098;2022-12-07T13:01:53;13.70;94.80
6462;DHT22;3264;42.862;25.098;2022-12-07T13:04:49;13.40;94.60
6462;DHT22;3264;42.862;25.098;2022-12-07T13:07:53;13.50;94.20
6462;DHT22;3264;42.862;25.098;2022-12-07T13:13:32;12.50;95.40
6462;DHT22;3264;42.862;25.098;2022-12-07T13:22:46;12.30;96.40
6462;DHT22;3264;42.862;25.098;2022-12-07T13:28:15;12.00;95.80
6462;DHT22;3264;42.862;25.098;2022-12-07T13:30:54;12.00;96.70
6462;DHT22;3264;42.862;25.098;2022-12-07T13:33:28;11.90;97.60
6462;DHT22;3264;42.862;25.098;2022-12-07T13:35:57;12.00;97.60
6462;DHT22;3264;42.862;25.098;2022-12-07T13:38:29;12.00;97.40
6462;DHT22;3264;42.862;25.098;2022-12-07T13:41:02;12.00;97.00
6462;DHT22;3264;42.862;25.098;2022-12-07T13:43:46;12.00;97.80
6462;DHT22;3264;42.862;25.098;2022-12-07T13:46:15;11.90;97.20
6462;DHT22;3264;42.862;25.098;2022-12-07T13:48:46;11.70;98.50
6462;DHT22;3264;42.862;25.098;2022-12-07T13:51:20;11.60;98.70
6462;DHT22;3264;42.862;25.098;2022-12-07T13:53:50;11.50;99.00
6462;DHT22;3264;42.862;25.098;2022-12-07T13:56:18;11.50;99.40
6462;DHT22;3264;42.862;25.098;2022-12-07T13:58:48;11.50;99.60
6462;DHT22;3264;42.862;25.098;2022-12-07T14:01:16;11.40;99.70
6462;DHT22;3264;42.862;25.098;2022-12-07T14:03:44;11.30;99.90
6462;DHT22;3264;42.862;25.098;2022-12-07T14:06:20;11.30;99.90
6462;DHT22;3264;42.862;25.098;2022-12-07T14:08:54;11.00;99.90
6462;DHT22;3264;42.862;25.098;2022-12-07T14:11:33;10.80;99.90
6462;DHT22;3264;42.862;25.098;2022-12-07T14:14:04;10.70;99.90
6462;DHT22;3264;42.862;25.098;2022-12-07T14:16:33;10.70;99.90
6462;DHT22;3264;42.862;25.098;2022-12-07T14:19:03;10.60;99.90
6462;DHT22;3264;42.862;25.098;2022-12-07T14:21:33;10.40;99.90
6462;DHT22;3264;42.862;25.098;2022-12-07T14:24:14;10.40;99.90
6462;DHT22;3264;42.862;25.098;2022-12-07T14:26:43;10.30;99.90
6462;DHT22;3264;42.862;25.098;2022-12-07T14:29:31;10.20;99.90
6462;DHT22;3264;42.862;25.098;2022-12-07T14:32:18;10.10;99.90
6462;DHT22;3264;42.862;25.098;2022-12-07T14:34:57;10.00;99.90
6462;DHT22;3264;42.862;25.098;2022-12-07T14:37:28;9.80;99.90
6462;DHT22;3264;42.862;25.098;2022-12-07T14:39:56;9.60;99.90
6462;DHT22;3264;42.862;25.098;2022-12-07T14:42:27;9.50;99.90
6462;DHT22;3264;42.862;25.098;2022-12-07T14:44:57;9.40;99.90
6462;DHT22;3264;42.862;25.098;2022-12-07T14:47:26;9.30;99.90
6462;DHT22;3264;42.862;25.098;2022-12-07T14:49:54;9.20;99.90
6462;DHT22;3264;42.862;25.098;2022-12-07T14:52:26;9.00;99.90
6462;DHT22;3264;42.862;25.098;2022-12-07T14:54:56;8.90;99.90
6462;DHT22;3264;42.862;25.098;2022-12-07T14:57:25;8.80;99.90
6462;DHT22;3264;42.862;25.098;2022-12-07T14:59:53;8.70;99.90
6462;DHT22;3264;42.862;25.098;2022-12-07T15:02:23;8.60;99.90
6462;DHT22;3264;42.862;25.098;2022-12-07T15:04:52;8.40;99.90
6462;DHT22;3264;42.862;25.098;2022-12-07T15:07:21;8.40;99.90
6462;DHT22;3264;42.862;25.098;2022-12-07T15:09:50;8.30;99.90
6462;DHT22;3264;42.862;25.098;2022-12-07T15:12:27;8.10;99.90
6462;DHT22;3264;42.862;25.098;2022-12-07T15:14:55;8.00;99.90
6462;DHT22;3264;42.862;25.098;2022-12-07T15:17:24;8.00;99.90
6462;DHT22;3264;42.862;25.098;2022-12-07T15:19:52;7.90;99.90
6462;DHT22;3264;42.862;25.098;2022-12-07T15:22:21;7.90;99.90
6462;DHT22;3264;42.862;25.098;2022-12-07T15:24:50;7.90;99.90
6462;DHT22;3264;42.862;25.098;2022-12-07T15:27:20;7.70;99.90
6462;DHT22;3264;42.862;25.098;2022-12-07T15:29:48;7.60;99.90
6462;DHT22;3264;42.862;25.098;2022-12-07T15:32:17;7.50;99.90
6462;DHT22;3264;42.862;25.098;2022-12-07T15:34:47;7.50;99.90
6462;DHT22;3264;42.862;25.098;2022-12-07T15:37:16;7.50;99.90
6462;DHT22;3264;42.862;25.098;2022-12-07T15:39:43;7.40;99.90
6462;DHT22;3264;42.862;25.098;2022-12-07T15:42:12;7.30;99.90
6462;DHT22;3264;42.862;25.098;2022-12-07T15:44:41;7.20;99.90
6462;DHT22;3264;42.862;25.098;2022-12-07T15:47:26;7.10;99.90
6462;DHT22;3264;42.862;25.098;2022-12-07T15:49:56;7.00;99.90
6462;DHT22;3264;42.862;25.098;2022-12-07T15:52:25;7.00;99.90
6462;DHT22;3264;42.862;25.098;2022-12-07T15:54:53;6.90;99.90
6462;DHT22;3264;42.862;25.098;2022-12-07T15:57:22;6.80;99.90
6462;DHT22;3264;42.862;25.098;2022-12-07T15:59:50;6.70;99.90
6462;DHT22;3264;42.862;25.098;2022-12-07T16:02:18;6.70;99.90
6462;DHT22;3264;42.862;25.098;2022-12-07T16:04:46;6.60;99.90
6462;DHT22;3264;42.862;25.098;2022-12-07T16:07:16;6.60;99.90
6462;DHT22;3264;42.862;25.098;2022-12-07T16:09:45;6.50;99.90
6462;DHT22;3264;42.862;25.098;2022-12-07T16:12:33;6.40;99.90
6462;DHT22;3264;42.862;25.098;2022-12-07T16:15:01;6.20;99.90
6462;DHT22;3264;42.862;25.098;2022-12-07T16:17:29;6.10;99.90
6462;DHT22;3264;42.862;25.098;2022-12-07T16:19:56;6.00;99.90
6462;DHT22;3264;42.862;25.098;2022-12-07T16:22:26;6.00;99.90
6462;DHT22;3264;42.862;25.098;2022-12-07T16:24:55;6.00;99.90
6462;DHT22;3264;42.862;25.098;2022-12-07T16:27:27;6.00;99.90
6462;DHT22;3264;42.862;25.098;2022-12-07T16:29:54;5.90;99.90
6462;DHT22;3264;42.862;25.098;2022-12-07T16:32:23;5.90;99.90
6462;DHT22;3264;42.862;25.098;2022-12-07T16:34:52;5.80;99.90
6462;DHT22;3264;42.862;25.098;2022-12-07T16:37:19;5.70;99.90
6462;DHT22;3264;42.862;25.098;2022-12-07T16:39:49;5.70;99.90
6462;DHT22;3264;42.862;25.098;2022-12-07T16:42:18;5.70;99.90
6462;DHT22;3264;42.862;25.098;2022-12-07T16:44:47;5.60;99.90
6462;DHT22;3264;42.862;25.098;2022-12-07T16:47:14;5.70;99.90
6462;DHT22;3264;42.862;25.098;2022-12-07T16:49:43;5.70;99.90
6462;DHT22;3264;42.862;25.098;2022-12-07T16:52:11;5.70;99.90
6462;DHT22;3264;42.862;25.098;2022-12-07T16:54:40;5.70;99.90